createdAt,value
2023-03-21T00:01:51.515Z,19.87
2023-03-21T00:04:18.244Z,19.94
2023-03-21T00:06:44.974Z,19.61
2023-03-21T00:09:12.307Z,19.61
2023-03-21T00:11:39.140Z,18.91
2023-03-21T00:14:08.613Z,19.30
2023-03-21T00:16:37.133Z,18.87
2023-03-21T00:19:07.626Z,19.77
2023-03-21T00:21:51.938Z,19.45
2023-03-21T00:24:26.203Z,18.59
2023-03-21T00:26:53.933Z,19.24
2023-03-21T00:29:21.730Z,19.30
2023-03-21T00:31:48.453Z,19.47
2023-03-21T00:34:15.981Z,19.45
2023-03-21T00:36:43.294Z,19.37
2023-03-21T00:39:11.170Z,19.34
2023-03-21T00:41:45.097Z,19.58
2023-03-21T00:44:15.546Z,19.05
2023-03-21T00:46:57.072Z,19.30
2023-03-21T00:49:27.704Z,19.54
2023-03-21T00:51:57.228Z,19.71
2023-03-21T00:54:24.527Z,19.39
2023-03-21T00:56:51.118Z,19.63
2023-03-21T00:59:18.211Z,19.89
2023-03-21T01:01:46.934Z,20.38
2023-03-21T01:04:16.824Z,19.98
2023-03-21T01:06:44.591Z,19.65
2023-03-21T01:09:19.712Z,19.92
2023-03-21T01:11:46.272Z,19.66
2023-03-21T01:14:22.482Z,20.03
2023-03-21T01:16:52.353Z,20.17
2023-03-21T01:19:27.618Z,20.30
2023-03-21T01:21:58.280Z,20.00
2023-03-21T01:24:25.390Z,20.25
2023-03-21T01:26:53.300Z,19.55
2023-03-21T01:29:20.138Z,19.47
2023-03-21T01:31:47.323Z,20.04
2023-03-21T01:34:15.615Z,20.08
2023-03-21T01:36:42.334Z,20.18
2023-03-21T01:39:14.627Z,20.34
2023-03-21T01:41:44.341Z,20.67
2023-03-21T01:45:31.565Z,20.39
2023-03-21T01:47:58.335Z,20.33
2023-03-21T01:50:33.578Z,20.42
2023-03-21T01:53:11.529Z,20.03
2023-03-21T01:55:39.694Z,19.83
2023-03-21T01:58:22.998Z,19.88
2023-03-21T02:01:05.271Z,20.05
2023-03-21T02:03:50.676Z,19.78
2023-03-21T02:06:44.941Z,19.91
2023-03-21T02:09:26.234Z,18.94
2023-03-21T02:11:54.872Z,19.27
2023-03-21T02:14:29.330Z,19.57
2023-03-21T02:17:28.130Z,19.48
2023-03-21T02:20:22.159Z,19.93
2023-03-21T02:23:10.403Z,19.14
2023-03-21T02:26:08.446Z,19.77
2023-03-21T02:28:42.159Z,19.73
2023-03-21T02:31:21.872Z,19.36
2023-03-21T02:34:22.156Z,19.62
2023-03-21T02:37:11.490Z,19.58
2023-03-21T02:40:01.271Z,19.90
2023-03-21T02:43:07.199Z,19.38
2023-03-21T02:45:49.713Z,19.84
2023-03-21T02:48:30.991Z,20.08
2023-03-21T02:51:05.126Z,19.88
2023-03-21T02:53:36.931Z,20.26
2023-03-21T02:56:10.759Z,20.30
2023-03-21T02:58:44.753Z,20.72
2023-03-21T03:01:11.554Z,20.94
2023-03-21T03:03:43.973Z,20.08
2023-03-21T03:06:24.864Z,19.71
2023-03-21T03:09:20.961Z,20.10
2023-03-21T03:11:54.651Z,20.67
2023-03-21T03:14:41.696Z,20.35
2023-03-21T03:17:17.638Z,20.60
2023-03-21T03:20:15.659Z,20.86
2023-03-21T03:23:24.491Z,21.22
2023-03-21T03:26:20.313Z,21.20
2023-03-21T03:28:52.908Z,20.56
2023-03-21T03:31:32.177Z,20.04
2023-03-21T03:34:07.110Z,20.04
2023-03-21T03:36:47.621Z,19.91
2023-03-21T03:39:18.133Z,19.94
2023-03-21T03:42:27.214Z,19.27
2023-03-21T03:44:49.924Z,19.28
2023-03-21T03:47:56.321Z,19.24
2023-03-21T03:50:34.654Z,19.19
2023-03-21T03:53:16.396Z,19.39
2023-03-21T03:55:46.073Z,19.33
2023-03-21T03:58:23.184Z,18.51
2023-03-21T04:00:54.749Z,18.38
2023-03-21T04:03:22.059Z,18.98
2023-03-21T04:05:50.420Z,19.10
2023-03-21T04:08:19.766Z,18.99
2023-03-21T04:10:51.881Z,19.25
2023-03-21T04:13:19.407Z,19.44
2023-03-21T04:16:11.806Z,19.15
2023-03-21T04:18:41.860Z,19.40
2023-03-21T04:21:10.793Z,19.60
2023-03-21T04:23:38.358Z,19.33
2023-03-21T04:26:06.409Z,19.58
2023-03-21T04:28:40.832Z,19.70
2023-03-21T04:31:31.081Z,19.83
2023-03-21T04:34:09.897Z,19.54
2023-03-21T04:36:39.408Z,19.77
2023-03-21T04:39:12.697Z,19.75
2023-03-21T04:41:45.721Z,19.82
2023-03-21T04:44:14.209Z,19.58
2023-03-21T04:46:41.388Z,19.74
2023-03-21T04:49:10.371Z,19.59
2023-03-21T04:51:37.614Z,19.61
2023-03-21T04:56:36.290Z,19.55
2023-03-21T04:59:09.165Z,19.28
2023-03-21T05:01:37.070Z,19.34
2023-03-21T05:04:04.809Z,19.56
2023-03-21T05:06:34.188Z,19.97
2023-03-21T05:09:01.678Z,20.00
2023-03-21T05:11:31.086Z,20.13
2023-03-21T05:14:01.485Z,19.92
2023-03-21T05:16:31.024Z,19.85
2023-03-21T05:19:03.726Z,20.01
2023-03-21T05:21:41.592Z,20.09
2023-03-21T05:24:15.890Z,20.01
2023-03-21T05:26:44.158Z,19.78
2023-03-21T05:29:15.009Z,20.11
2023-03-21T05:31:44.297Z,19.96
2023-03-21T05:34:14.444Z,19.93
2023-03-21T05:36:41.778Z,19.76
2023-03-21T05:39:10.644Z,19.95
2023-03-21T05:41:42.873Z,19.26
2023-03-21T05:44:09.704Z,19.81
2023-03-21T05:46:37.987Z,19.69
2023-03-21T05:49:05.926Z,19.48
2023-03-21T05:51:32.743Z,19.94
2023-03-21T05:53:59.470Z,19.77
2023-03-21T05:56:26.199Z,19.48
2023-03-21T05:58:57.490Z,19.47
2023-03-21T06:01:25.481Z,19.38
2023-03-21T06:04:00.922Z,19.90
2023-03-21T06:06:29.173Z,19.28
2023-03-21T06:08:59.724Z,19.53
2023-03-21T06:11:31.033Z,19.47
2023-03-21T06:14:20.722Z,19.69
2023-03-21T06:17:04.578Z,19.13
2023-03-21T06:19:31.957Z,19.59
2023-03-21T06:22:06.811Z,19.35
2023-03-21T06:24:36.284Z,19.28
2023-03-21T06:27:04.092Z,19.47
2023-03-21T06:29:42.156Z,19.75
2023-03-21T06:32:08.874Z,19.55
2023-03-21T06:34:37.752Z,19.43
2023-03-21T06:37:06.850Z,19.55
2023-03-21T06:39:35.456Z,19.49
2023-03-21T06:42:02.809Z,19.61
2023-03-21T06:44:29.873Z,19.29
2023-03-21T06:47:03.322Z,19.42
2023-03-21T06:49:30.848Z,18.98
2023-03-21T06:52:04.791Z,19.72
2023-03-21T06:54:31.581Z,18.72
2023-03-21T06:57:08.222Z,18.68
2023-03-21T06:59:36.247Z,19.01
2023-03-21T07:02:06.956Z,19.18
2023-03-21T07:04:39.908Z,19.34
2023-03-21T07:07:11.843Z,19.90
2023-03-21T07:09:39.872Z,19.72
2023-03-21T07:12:06.578Z,19.84
2023-03-21T07:14:45.431Z,19.48
2023-03-21T07:17:12.138Z,20.03
2023-03-21T07:19:38.847Z,18.92
2023-03-21T07:22:06.084Z,19.22
2023-03-21T07:24:33.066Z,19.42
2023-03-21T07:26:59.847Z,19.94
2023-03-21T07:29:26.698Z,19.76
2023-03-21T07:31:53.458Z,20.35
2023-03-21T07:34:22.458Z,20.95
2023-03-21T07:36:50.430Z,20.41
2023-03-21T07:39:17.967Z,19.89
2023-03-21T07:41:44.742Z,19.44
2023-03-21T07:44:23.467Z,19.91
2023-03-21T07:47:01.477Z,20.03
2023-03-21T07:49:28.523Z,20.17
2023-03-21T07:51:55.574Z,19.87
2023-03-21T07:54:23.197Z,19.80
2023-03-21T07:56:49.737Z,20.30
2023-03-21T07:59:16.519Z,20.08
2023-03-21T08:01:43.354Z,20.46
2023-03-21T08:04:10.866Z,20.52
2023-03-21T08:06:37.464Z,20.87
2023-03-21T08:09:04.185Z,20.77
2023-03-21T08:11:33.979Z,20.82
2023-03-21T08:14:01.554Z,20.64
2023-03-21T08:16:29.777Z,21.03
2023-03-21T08:18:56.866Z,20.74
2023-03-21T08:21:25.474Z,20.75
2023-03-21T08:23:53.284Z,21.12
2023-03-21T08:26:20.189Z,21.28
2023-03-21T08:28:47.099Z,20.94
2023-03-21T08:31:14.751Z,20.53
2023-03-21T08:33:41.549Z,20.02
2023-03-21T08:36:10.539Z,20.30
2023-03-21T08:38:37.333Z,20.04
2023-03-21T08:41:04.288Z,20.08
2023-03-21T08:43:30.957Z,20.22
2023-03-21T08:45:57.938Z,20.10
2023-03-21T08:48:24.692Z,20.26
2023-03-21T08:50:51.603Z,20.53
2023-03-21T08:53:18.342Z,20.57
2023-03-21T08:55:45.197Z,20.05
2023-03-21T08:58:12.141Z,20.86
2023-03-21T09:00:41.232Z,20.48
2023-03-21T09:03:08.980Z,21.08
2023-03-21T09:05:37.677Z,21.37
2023-03-21T09:08:05.484Z,20.87
2023-03-21T09:10:32.182Z,20.35
2023-03-21T09:12:59.077Z,20.52
2023-03-21T09:15:28.938Z,20.38
2023-03-21T09:17:58.842Z,20.46
2023-03-21T09:20:31.206Z,20.25
2023-03-21T09:22:59.203Z,20.75
2023-03-21T09:25:31.038Z,21.26
2023-03-21T09:27:59.039Z,21.33
2023-03-21T09:30:26.646Z,20.30
2023-03-21T09:32:55.563Z,20.88
2023-03-21T09:35:22.657Z,20.70
2023-03-21T09:37:49.961Z,20.55
2023-03-21T09:40:58.405Z,20.18
2023-03-21T09:43:34.501Z,21.02
2023-03-21T09:46:15.317Z,21.12
2023-03-21T09:48:57.441Z,20.79
2023-03-21T09:51:31.735Z,20.81
2023-03-21T09:54:03.849Z,21.34
2023-03-21T09:56:31.505Z,21.67
2023-03-21T09:59:00.739Z,21.87
2023-03-21T10:01:42.091Z,22.12
2023-03-21T10:04:16.715Z,22.35
2023-03-21T10:06:45.811Z,22.84
2023-03-21T10:09:21.390Z,22.85
2023-03-21T10:11:57.133Z,22.54
2023-03-21T10:14:32.656Z,22.22
2023-03-21T10:17:16.747Z,22.07
2023-03-21T10:19:46.656Z,23.11
2023-03-21T10:22:15.222Z,22.76
2023-03-21T10:24:42.104Z,22.79
2023-03-21T10:27:13.201Z,22.09
2023-03-21T10:29:44.661Z,21.93
2023-03-21T10:32:14.938Z,22.49
2023-03-21T10:34:46.106Z,22.71
2023-03-21T10:37:14.373Z,21.83
2023-03-21T10:39:52.190Z,21.70
2023-03-21T10:42:21.377Z,22.65
2023-03-21T10:44:50.301Z,22.60
2023-03-21T10:47:27.460Z,22.00
2023-03-21T10:50:07.310Z,22.61
2023-03-21T10:52:37.354Z,21.99
2023-03-21T10:55:22.844Z,22.51
2023-03-21T10:57:55.171Z,22.51
2023-03-21T11:00:25.790Z,22.11
2023-03-21T11:02:54.400Z,22.39
2023-03-21T11:05:33.312Z,23.20
2023-03-21T11:08:18.856Z,22.83
2023-03-21T11:11:05.871Z,22.67
2023-03-21T11:13:41.831Z,23.12
2023-03-21T11:16:12.403Z,22.94
2023-03-21T11:18:54.712Z,22.15
2023-03-21T11:21:29.771Z,22.94
2023-03-21T11:23:57.477Z,23.25
2023-03-21T11:26:32.602Z,23.80
2023-03-21T11:28:59.406Z,23.50
2023-03-21T11:31:44.961Z,23.07
2023-03-21T11:34:28.994Z,23.12
2023-03-21T11:36:59.891Z,23.41
2023-03-21T11:39:41.095Z,24.07
2023-03-21T11:42:30.538Z,23.09
2023-03-21T11:45:04.774Z,23.32
2023-03-21T11:47:31.959Z,23.62
2023-03-21T11:50:05.033Z,23.65
2023-03-21T11:52:37.491Z,23.68
2023-03-21T11:55:42.145Z,23.62
2023-03-21T11:58:18.297Z,23.79
2023-03-21T12:00:55.954Z,23.84
2023-03-21T12:03:56.816Z,24.05
2023-03-21T12:06:38.950Z,23.92
2023-03-21T12:09:44.187Z,25.08
2023-03-21T12:12:39.113Z,25.00
2023-03-21T12:15:34.910Z,24.80
2023-03-21T12:18:21.729Z,26.10
2023-03-21T12:20:58.700Z,25.25
2023-03-21T12:24:10.799Z,24.34
2023-03-21T12:26:58.110Z,23.93
2023-03-21T12:29:58.011Z,23.70
2023-03-21T12:32:52.901Z,24.22
2023-03-21T12:35:19.683Z,23.86
2023-03-21T12:38:19.166Z,23.12
2023-03-21T12:41:06.088Z,23.27
2023-03-21T12:44:11.754Z,23.41
2023-03-21T12:46:54.131Z,23.70
2023-03-21T12:49:38.111Z,23.05
2023-03-21T12:52:15.610Z,23.84
2023-03-21T12:55:19.933Z,23.71
2023-03-21T12:57:58.148Z,23.80
2023-03-21T13:00:38.387Z,23.84
2023-03-21T13:03:14.390Z,24.32
2023-03-21T13:05:46.998Z,23.60
2023-03-21T13:08:37.336Z,24.16
2023-03-21T13:11:06.670Z,24.09
2023-03-21T13:13:39.199Z,24.35
2023-03-21T13:16:29.001Z,23.96
2023-03-21T13:19:01.362Z,23.87
2023-03-21T13:21:36.428Z,23.72
2023-03-21T13:24:24.917Z,23.05
2023-03-21T13:27:07.802Z,23.96
2023-03-21T13:29:54.385Z,23.48
2023-03-21T13:32:35.878Z,23.55
2023-03-21T13:35:18.405Z,23.15
2023-03-21T13:38:17.270Z,23.44
2023-03-21T13:40:57.218Z,24.07
2023-03-21T13:43:40.362Z,23.73
2023-03-21T13:46:50.403Z,23.67
2023-03-21T13:49:34.135Z,24.43
2023-03-21T13:52:21.376Z,25.52
2023-03-21T13:54:54.505Z,25.86
2023-03-21T13:57:33.279Z,25.43
2023-03-21T14:00:39.973Z,25.02
2023-03-21T14:03:10.186Z,24.36
2023-03-21T14:05:38.954Z,24.50
2023-03-21T14:08:15.654Z,23.90
2023-03-21T14:10:49.155Z,23.42
2023-03-21T14:13:19.590Z,23.56
2023-03-21T14:15:56.245Z,24.35
2023-03-21T14:18:34.934Z,25.03
2023-03-21T14:21:24.164Z,24.75
2023-03-21T14:24:06.116Z,23.82
2023-03-21T14:26:36.261Z,24.44
2023-03-21T14:29:12.333Z,23.72
2023-03-21T14:31:47.052Z,23.60
2023-03-21T14:34:18.021Z,24.56
2023-03-21T14:36:56.945Z,24.06
2023-03-21T14:39:28.900Z,24.77
2023-03-21T14:42:01.035Z,24.23
2023-03-21T14:44:47.394Z,24.38
2023-03-21T14:47:22.908Z,23.34
2023-03-21T14:49:52.742Z,22.91
2023-03-21T14:52:41.179Z,23.21
2023-03-21T14:55:16.454Z,23.43
2023-03-21T14:57:45.912Z,23.47
2023-03-21T15:00:23.258Z,23.63
2023-03-21T15:02:51.464Z,23.94
2023-03-21T15:05:18.481Z,23.59
2023-03-21T15:07:54.263Z,23.37
2023-03-21T15:10:21.189Z,23.01
2023-03-21T15:13:13.214Z,23.11
2023-03-21T15:15:41.409Z,23.13
2023-03-21T15:18:11.176Z,23.59
2023-03-21T15:20:39.211Z,23.71
2023-03-21T15:23:15.181Z,23.59
2023-03-21T15:25:43.095Z,23.28
2023-03-21T15:28:15.347Z,23.07
2023-03-21T15:30:50.118Z,22.92
2023-03-21T15:33:18.134Z,22.36
2023-03-21T15:35:54.212Z,22.81
2023-03-21T15:38:44.731Z,22.56
2023-03-21T15:41:20.566Z,23.22
2023-03-21T15:44:10.250Z,22.82
2023-03-21T15:46:49.157Z,22.69
2023-03-21T15:49:19.272Z,22.72
2023-03-21T15:51:53.792Z,23.00
2023-03-21T15:54:25.511Z,22.91
2023-03-21T15:56:55.061Z,22.73
2023-03-21T15:59:26.028Z,22.89
2023-03-21T16:01:53.241Z,23.01
2023-03-21T16:04:20.071Z,22.70
2023-03-21T16:07:05.184Z,22.51
2023-03-21T16:09:43.603Z,22.53
2023-03-21T16:12:17.008Z,22.54
2023-03-21T16:14:46.399Z,23.00
2023-03-21T16:17:41.095Z,22.16
2023-03-21T16:20:20.844Z,22.54
2023-03-21T16:22:47.980Z,22.12
2023-03-21T16:25:14.883Z,22.25
2023-03-21T16:27:44.065Z,22.13
2023-03-21T16:30:16.649Z,21.60
2023-03-21T16:32:44.680Z,21.70
2023-03-21T16:35:11.567Z,21.43
2023-03-21T16:37:41.555Z,20.75
2023-03-21T16:40:37.372Z,20.31
2023-03-21T16:43:04.280Z,21.25
2023-03-21T16:45:31.908Z,21.25
2023-03-21T16:47:59.346Z,21.29
2023-03-21T16:50:28.380Z,21.27
2023-03-21T16:52:56.404Z,21.43
2023-03-21T16:55:24.319Z,21.12
2023-03-21T16:57:54.694Z,21.59
2023-03-21T17:00:29.121Z,21.43
2023-03-21T17:02:58.548Z,21.60
2023-03-21T17:05:27.789Z,21.47
2023-03-21T17:07:54.768Z,21.58
2023-03-21T17:10:29.633Z,21.77
2023-03-21T17:12:56.818Z,21.68
2023-03-21T17:15:23.634Z,21.73
2023-03-21T17:17:50.363Z,21.91
2023-03-21T17:20:24.956Z,21.51
2023-03-21T17:22:52.409Z,21.70
2023-03-21T17:25:20.036Z,21.27
2023-03-21T17:27:47.746Z,21.13
2023-03-21T17:30:26.850Z,21.40
2023-03-21T17:32:54.335Z,21.69
2023-03-21T17:35:22.997Z,21.98
2023-03-21T17:37:52.267Z,22.05
2023-03-21T17:40:30.941Z,21.81
2023-03-21T17:42:59.331Z,22.12
2023-03-21T17:45:26.150Z,22.34
2023-03-21T17:47:54.938Z,22.25
2023-03-21T17:50:25.908Z,22.17
2023-03-21T17:53:21.706Z,21.83
2023-03-21T17:55:51.512Z,21.25
2023-03-21T17:58:22.152Z,21.60
2023-03-21T18:00:58.605Z,21.83
2023-03-21T18:03:33.907Z,21.22
2023-03-21T18:06:01.807Z,21.16
2023-03-21T18:08:28.403Z,21.26
2023-03-21T18:10:55.381Z,21.56
2023-03-21T18:13:22.201Z,21.10
2023-03-21T18:15:50.645Z,20.77
2023-03-21T18:18:17.747Z,21.53
2023-03-21T18:20:52.168Z,21.65
2023-03-21T18:23:19.796Z,21.67
2023-03-21T18:25:47.124Z,20.96
2023-03-21T18:28:19.433Z,21.25
2023-03-21T18:31:15.736Z,21.09
2023-03-21T18:33:42.081Z,21.23
2023-03-21T18:36:09.867Z,21.39
2023-03-21T18:38:37.439Z,21.24
2023-03-21T18:41:05.747Z,21.15
2023-03-21T18:46:19.297Z,21.54
2023-03-21T18:48:46.595Z,21.74
2023-03-21T18:51:17.606Z,22.00
2023-03-21T18:53:45.770Z,21.44
2023-03-21T18:56:57.713Z,21.05
2023-03-21T18:59:01.902Z,21.15
2023-03-21T19:01:28.768Z,21.39
2023-03-21T19:04:20.066Z,21.55
2023-03-21T19:06:47.597Z,21.54
2023-03-21T19:09:14.895Z,21.52
2023-03-21T19:11:42.823Z,20.90
2023-03-21T19:14:14.900Z,21.01
2023-03-21T19:17:12.133Z,21.06
2023-03-21T19:19:29.579Z,21.70
2023-03-21T19:21:56.540Z,21.89
2023-03-21T19:24:28.149Z,21.95
2023-03-21T19:26:55.713Z,22.50
2023-03-21T19:29:22.519Z,22.52
2023-03-21T19:31:51.122Z,22.47
2023-03-21T19:34:18.687Z,22.43
2023-03-21T19:36:50.730Z,22.04
2023-03-21T19:39:21.911Z,22.29
2023-03-21T19:41:49.144Z,22.22
2023-03-21T19:44:16.605Z,22.77
2023-03-21T19:46:44.462Z,22.34
2023-03-21T19:49:11.270Z,21.46
2023-03-21T19:51:38.046Z,21.68
2023-03-21T19:54:06.043Z,21.65
2023-03-21T19:56:34.531Z,21.70
2023-03-21T19:59:02.965Z,21.57
2023-03-21T20:01:32.444Z,22.37
2023-03-21T20:03:59.882Z,22.29
2023-03-21T20:06:27.322Z,22.25
2023-03-21T20:11:41.651Z,22.27
2023-03-21T20:14:09.161Z,21.92
2023-03-21T20:16:37.004Z,21.50
2023-03-21T20:19:05.961Z,21.70
2023-03-21T20:21:44.517Z,22.15
2023-03-21T20:24:16.230Z,21.83
2023-03-21T20:26:46.566Z,21.59
2023-03-21T20:30:07.605Z,21.39
2023-03-21T20:32:00.771Z,21.77
2023-03-21T20:34:30.529Z,21.42
2023-03-21T20:36:58.342Z,21.66
2023-03-21T20:39:25.200Z,20.60
2023-03-21T20:41:54.675Z,20.56
2023-03-21T20:44:48.042Z,20.07
2023-03-21T20:47:08.465Z,20.80
2023-03-21T20:49:35.858Z,20.35
2023-03-21T20:54:54.146Z,20.58
2023-03-21T20:57:23.099Z,20.79
2023-03-21T20:59:50.115Z,20.95
2023-03-21T21:02:17.157Z,20.33
2023-03-21T21:05:05.091Z,20.62
2023-03-21T21:07:31.223Z,20.42
2023-03-21T21:09:58.362Z,20.35
2023-03-21T21:12:28.793Z,20.20
2023-03-21T21:14:56.657Z,20.33
2023-03-21T21:17:42.842Z,19.77
2023-03-21T21:20:17.577Z,19.94
2023-03-21T21:22:58.625Z,20.18
2023-03-21T21:25:27.569Z,19.97
2023-03-21T21:27:54.368Z,19.92
2023-03-21T21:30:21.628Z,20.05
2023-03-21T21:32:49.448Z,20.20
2023-03-21T21:35:19.907Z,20.08
2023-03-21T21:37:46.572Z,19.35
2023-03-21T21:40:20.465Z,19.60
2023-03-21T21:42:47.569Z,20.03
2023-03-21T21:45:15.749Z,20.02
2023-03-21T21:47:45.250Z,20.03
2023-03-21T21:50:14.375Z,19.74
2023-03-21T21:52:44.040Z,19.40
2023-03-21T21:55:11.119Z,19.55
2023-03-21T21:57:39.715Z,19.22
2023-03-21T22:00:12.837Z,19.75
2023-03-21T22:02:40.724Z,19.22
2023-03-21T22:05:09.085Z,19.01
2023-03-21T22:07:37.604Z,18.85
2023-03-21T22:10:04.817Z,18.71
2023-03-21T22:12:32.271Z,18.87
2023-03-21T22:14:59.091Z,19.07
2023-03-21T22:17:26.238Z,19.17
2023-03-21T22:20:04.784Z,19.07
2023-03-21T22:22:37.174Z,18.59
2023-03-21T22:25:05.352Z,18.59
2023-03-21T22:27:32.770Z,18.43
2023-03-21T22:30:07.460Z,18.73
2023-03-21T22:32:35.489Z,18.61
2023-03-21T22:35:02.575Z,18.64
2023-03-21T22:37:34.596Z,18.82
2023-03-21T22:40:01.769Z,18.31
2023-03-21T22:42:28.447Z,18.45
2023-03-21T22:44:55.415Z,18.65
2023-03-21T22:47:21.953Z,17.97
2023-03-21T22:49:48.606Z,18.18
2023-03-21T22:52:15.229Z,18.05
2023-03-21T22:54:43.167Z,18.28
2023-03-21T22:57:09.738Z,18.28
2023-03-21T22:59:36.529Z,18.44
2023-03-21T23:02:03.626Z,17.91
2023-03-21T23:04:31.942Z,17.69
2023-03-21T23:06:58.778Z,17.84
2023-03-21T23:09:25.721Z,17.56
2023-03-21T23:11:52.312Z,18.06
2023-03-21T23:14:20.823Z,18.07
2023-03-21T23:16:53.306Z,17.69
2023-03-21T23:19:21.917Z,17.70
2023-03-21T23:21:48.671Z,17.91
2023-03-21T23:24:15.981Z,17.96
2023-03-21T23:26:44.739Z,17.57
2023-03-21T23:29:11.821Z,17.86
2023-03-21T23:31:39.866Z,17.81
2023-03-21T23:34:06.857Z,17.71
2023-03-21T23:36:33.465Z,17.70
2023-03-21T23:39:00.655Z,17.67
2023-03-21T23:41:27.332Z,17.57
2023-03-21T23:43:54.243Z,17.67
2023-03-21T23:46:21.038Z,17.72
2023-03-21T23:48:48.630Z,17.56
2023-03-21T23:51:17.496Z,17.68
2023-03-21T23:53:46.569Z,17.90
2023-03-21T23:56:22.341Z,17.89
2023-03-21T23:58:49.962Z,17.51
